Résultats

EMBRUN TRAIL - 26KM. Édition 2019.

26 Km
21/07/2019 à 08:30:00 - EMBRUN (05)
111 arrivant(e)s.





Place▲ Temps Dossard Nom Prenom Categ #Categ Sexe #Sexe Club Vit Moy Diplôme Partager
1 02:21:41 89 PALA LAURENT SEM 1 M 1 ASTRE CREILLOIS TRIATHLON 11.01
2 02:22:23 78 MERLE SEBASTIEN M1M 1 M 2 10.96
3 02:23:28 52 GIRARDIN FLORIAN SEM 2 M 3 JSFG 10.87
4 02:24:04 96 RAMBAUD ADRIEN SEM 3 M 4 10.83
5 02:36:37 97 RICHARD ETIENNE M1M 2 M 5 9.96
6 02:37:09 115 GERBAL BAPTISTE SEM 4 M 6 9.93
7 02:38:16 118 DENAIS LEO SEM 5 M 7 9.86
8 02:40:25 68 LEBIGRE STEPHANE SEM 6 M 8 9.72
9 02:40:48 100 ROCHA GEOFFREY SEM 7 M 9 US ISSOIRE 9.70
10 02:42:28 102 SANCHEZ SERGE M2M 1 M 10 MASSALIA MARATHON 9.60
11 02:42:50 1 LAVERSANNE SOPHIE SEF 1 F 1 SUDRUNNING 9.58
12 02:43:20 84 MORO SERGE M2M 2 M 11 ESRIT TRAIL 9.55
13 02:44:48 75 MENAGE CHRISTOPHE M1M 3 M 12 JOGGING MESLAY ATHLETISME 9.47
14 02:45:05 33 DA-SILVA JOAQUIM M1M 4 M 13 MACADAM 07 9.45
15 02:46:35 53 GRICOURT DORIAN SEM 8 M 14 9.36
16 02:46:51 117 OUANDA MOHAMED M1M 5 M 15 USC SEPTEMOISE 9.35
17 02:48:01 92 PILLOT SIMON ESM 1 M 16 9.28
18 02:48:34 79 MIEUZET ARNAUD M1M 6 M 17 9.25
19 02:48:57 20 BRENDLE TRISTAN M2M 3 M 18 9.23
20 02:49:02 106 STACHE ALEXANDRE JUM 1 M 19 RUNNIN'GREZ 9.23
21 02:49:10 37 DEVEVEY JULIEN SEM 9 M 20 XRUN 9.22
22 02:51:41 70 LETERME ERIC M1M 7 M 21 HEM AC 9.09
23 02:51:50 65 LACAZE DAMIEN SEM 10 M 22 9.08
24 02:54:18 30 COURAT CHRISTOPHE M2M 4 M 23 L'ECHAPPEE DES BORDS DE LOIRE 8.95
25 02:55:04 57 HERPIN JEAN-PHILIPPE M2M 5 M 24 8.91
26 02:55:26 76 MENEZ GAEL SEM 11 M 25 LA ROCHE SPORTS NATURE 8.89
27 02:55:35 101 ROUX NICOLAS SEM 12 M 26 8.88
28 02:55:51 62 JOCKIN GILLES SEM 13 M 27 8.87
29 02:56:37 99 RIOU SIMON SEM 14 M 28 8.83
30 02:57:35 31 COUTURIER LORRIS SEM 15 M 29 TRICAT 8.78
31 02:57:41 83 MORINO-ROS SYLVAIN M2M 6 M 30 8.78
32 02:58:00 66 LAUGIER LAURENCE SEF 2 F 2 CABBA 8.76
33 02:58:45 24 CASASSA CAMILLE SEM 16 M 31 8.73
34 02:59:27 61 JOCKIN FRANCOIS SEM 17 M 32 8.69
35 02:59:46 55 HAUVILLE FRANCOIS SEM 18 M 33 8.68
36 03:00:04 91 PIE JEAN-CLAUDE M2M 7 M 34 ASPTT TOULON LA VALETTE 8.66
37 03:00:38 17 BRANCHU JEREMY SEM 19 M 35 DAUPHINS DE L'ELORN TRIATHLON LANDERNEAU 8.64
38 03:01:00 85 MOY ARNAUD M1M 8 M 36 8.62
39 03:01:58 39 D'OFFAY REGIS M2M 8 M 37 TOULON TRIATHLON 8.57
40 03:02:20 64 KIPGEN JEROME SEM 20 M 38 8.56
41 03:03:13 73 MAIGNE SEBASTIEN M1M 9 M 39 TRIATHLON CLUB DE JOUE-LES-TOURS 8.51
42 03:03:43 86 NEGARET FREDERIC M2M 9 M 40 VAINCRE PARKINSON 8.49
43 03:05:23 69 LENOBLE MAXENCE SEM 21 M 41 8.41
44 03:07:31 15 BOUCHE STEPHANE M2M 10 M 42 GH2A 8.32
45 03:08:26 122 PONCIN JUSTINE SEF 3 F 3 8.28
46 03:09:15 47 FREVILLE CHRISTOPHE M2M 11 M 43 RUNNING VALLOUREC DEVILLE 8.24
47 03:09:54 7 ALLIX FRANCK M1M 10 M 44 ADNGPS 8.21
48 03:10:16 107 TETU MELANIE M1F 1 F 4 AS AGNETZ ATHLETISME 8.20
49 03:10:21 44 FEUILLET SEBASTIEN M1M 11 M 45 AVIRON BAYONNAIS 8.20
50 03:11:36 105 SCOGNAMILLO RONAN SEM 22 M 46 8.14
51 03:11:40 81 MIKACIC THIERRY M2M 12 M 47 8.14
52 03:12:02 26 CHAUVET OLIVIER M2M 13 M 48 S/L EAPE 8.12
53 03:12:16 41 DUBOIS STEPHANE SEM 23 M 49 8.11
54 03:14:46 116 HETTAK JEAN-MICHEL M1M 12 M 50 USC SEPTEMES 8.01
55 03:15:47 43 DUTHIL GREGORY M1M 13 M 51 7.97
56 03:15:49 63 JOUVE SYLVAIN SEM 24 M 52 7.97
57 03:16:20 113 VERHOFSTADT DAVID M1M 14 M 53 TRIATHLON LUXEMBOURG 7.95
58 03:17:52 56 HEDOUIN FRANCOIS M1M 15 M 54 7.88
59 03:18:33 123 BOTTU FRANCOIS SEM 25 M 55 7.86
60 03:18:37 94 POULET BENOIT M1M 16 M 56 LAGNY OMNISPORT 7.85
61 03:20:35 71 LICOUR LAURENT M2M 14 M 57 CC WAVRIN 7.78
62 03:20:53 13 BERNARDIN GUILLAUME SEM 26 M 58 7.77
63 03:20:53 90 PESME ROMAIN SEM 27 M 59 7.77
64 03:22:29 54 GRUMEL BASTIEN SEM 28 M 60 AEFE CASABLANCA/INSAF 7.70
65 03:22:51 77 MENIERE JEFF M1M 17 M 61 PROVENCE AVENTURE 7.69
66 03:23:20 25 CHALTE NICOLAS SEM 29 M 62 TCM 7.67
67 03:24:23 93 POUILLET CLAUDE M2M 15 M 63 7.63
68 03:26:38 119 LACHAISE OLIVIER M1M 18 M 64 ASPTT TOULON LA VALETTE 7.55
69 03:26:48 23 CASANOVA JEAN-CHRISTOPHE M2M 16 M 65 7.54
70 03:27:10 111 WASYKULA CAROLINE SEF 4 F 5 7.53
71 03:27:47 18 BREDO RAPHAEL M1M 19 M 66 7.51
72 03:33:55 112 WELSCH CAROLINE SEF 5 F 6 7.29
73 03:33:57 35 DENIS GUY M3M 1 M 67 7.29
74 03:34:24 60 JOBARD CLEMENT SEM 30 M 68 7.28
75 03:34:25 59 JOBARD AURELIEN SEM 31 M 69 7.28
76 03:34:29 48 FRIESEN MARC M1M 20 M 70 7.27
77 03:36:51 58 HOLIN FABIENNE M1F 2 F 7 7.19
78 03:38:08 38 DEWEZ JULIEN SEM 32 M 71 7.15
79 03:38:45 36 DEROUET CEDRIC M1M 21 M 72 7.13
80 03:39:26 16 BOUIN SAMY SEM 33 M 73 7.11
81 03:41:33 121 DEMIMAL ANDRE M2M 17 M 74 TRIATHL AIX 7.04
82 03:42:26 40 DRUMAIN EDOUARD SEM 34 M 75 7.01
83 03:42:45 9 BAHRI CHRISTOPHE M2M 18 M 76 7.00
84 03:43:14 104 SAVOYINI HELENE M1F 3 F 8 EMBRUN TRIATHLON CLUB 6.99
85 03:45:23 74 MAITREPIERRE JEROME M2M 19 M 77 MASSALIA MARATHON 6.92
86 03:46:39 22 CARPENTIER JEAN-CLAUDE M4M 1 M 78 COURIR A SAINT GERVAIS 6.88
87 03:47:52 114 ROBILLARD BRUNO SEM 35 M 79 6.85
88 03:50:20 87 NICOT MELISSANDRE SEF 6 F 9 6.77
89 03:50:20 29 COULET ALEXANDRE SEM 36 M 80 FSPN 6.77
90 03:50:55 120 PONSERO JULIEN M1M 22 M 81 6.76
91 03:52:06 51 GINESTOUX MARC M3M 2 M 82 6.72
92 03:56:03 88 OUNIS SAMY SEM 37 M 83 6.61
93 03:57:57 72 LIMOZIN DOMINIQUE M4M 2 M 84 6.56
94 03:59:01 12 BERNARD JULES SEM 38 M 85 6.53
95 04:05:10 109 VIAL PATRICE M1M 23 M 86 6.36
96 04:08:40 34 DAUSSY ISABELLE M1F 4 F 10 6.27
97 04:11:35 108 VAILLANT RICHARD M1M 24 M 87 6.20
98 04:11:36 67 LAVERGNE LAURE SEF 7 F 11 6.20
99 04:13:54 32 CROS KARINE M1F 5 F 12 6.14
100 04:14:11 103 SATRE CEDRIC SEM 39 M 88 6.14